Time;durP1;ratioP1;P1;durP2;ratioP2;P2;SDS_P1;SDS_P2;PMS_P1;PMS_P2;Temp;Humidity;BMP_temperature;BMP_pressure;BME280_temperature;BME280_humidity;BME280_pressure;Samples;Min_cycle;Max_cycle;Signal;HPM_P1;HPM_P2
2023/11/28 00:01:41;;;;;;;14.48;8.60;;;;;;;7.48;66.47;100077.47;5009896;28;20050;-48
2023/11/28 00:04:07;;;;;;;12.98;8.43;;;;;;;7.48;66.36;100085.25;5009345;28;20562;-47
2023/11/28 00:06:32;;;;;;;14.93;9.40;;;;;;;7.51;66.47;100095.63;5010067;28;20076;-46
2023/11/28 00:08:57;;;;;;;15.95;9.88;;;;;;;7.41;66.83;100098.97;5009368;28;20164;-44
2023/11/28 00:11:23;;;;;;;15.85;10.15;;;;;;;7.54;66.59;100095.69;5010193;28;20057;-48
2023/11/28 00:13:50;;;;;;;15.95;9.88;;;;;;;7.38;67.27;100099.78;5010126;28;20121;-46
2023/11/28 00:16:15;;;;;;;17.52;9.50;;;;;;;7.65;66.10;100107.06;5009846;28;20030;-46
2023/11/28 00:18:41;;;;;;;15.38;9.73;;;;;;;7.83;65.06;100102.09;5010573;28;20054;-45
2023/11/28 00:21:06;;;;;;;14.38;9.52;;;;;;;7.51;65.83;100099.09;5010592;28;20100;-48
2023/11/28 00:23:32;;;;;;;14.73;8.45;;;;;;;7.02;66.59;100107.91;5010579;28;20484;-48
2023/11/28 00:25:57;;;;;;;14.70;8.38;;;;;;;7.63;65.40;100113.94;5010443;28;20565;-49
2023/11/28 00:28:24;;;;;;;13.68;8.02;;;;;;;7.22;66.39;100109.09;5009999;28;20500;-53
2023/11/28 00:30:49;;;;;;;12.65;8.07;;;;;;;7.49;65.05;100118.09;5009627;28;20041;-45
2023/11/28 00:33:14;;;;;;;12.30;7.32;;;;;;;7.24;65.63;100129.84;5009208;28;20396;-50
2023/11/28 00:35:40;;;;;;;12.00;7.32;;;;;;;7.30;65.23;100138.59;5009388;28;20068;-50
2023/11/28 00:38:06;;;;;;;11.32;6.95;;;;;;;7.71;64.30;100146.94;5009021;28;20077;-51
2023/11/28 00:40:32;;;;;;;10.65;6.68;;;;;;;7.40;65.08;100154.25;5009734;28;20121;-49
2023/11/28 00:42:59;;;;;;;10.88;6.90;;;;;;;7.10;65.58;100159.88;5009340;28;20062;-49
2023/11/28 00:45:25;;;;;;;11.20;6.72;;;;;;;7.22;65.21;100168.72;5009489;28;20087;-49
2023/11/28 00:47:51;;;;;;;9.80;6.50;;;;;;;7.12;65.31;100171.13;5009509;28;20511;-48
2023/11/28 00:50:18;;;;;;;9.73;6.45;;;;;;;7.25;65.02;100173.97;5008791;28;20026;-48
2023/11/28 00:52:44;;;;;;;9.52;5.93;;;;;;;7.24;64.44;100173.94;5010208;28;20046;-46
2023/11/28 00:55:10;;;;;;;9.75;6.38;;;;;;;6.72;65.40;100169.59;5011870;28;20582;-47
2023/11/28 00:57:35;;;;;;;8.98;5.97;;;;;;;7.07;65.16;100191.81;5013308;28;20037;-47
2023/11/28 01:00:02;;;;;;;9.80;6.07;;;;;;;7.47;64.30;100184.63;5012767;28;20116;-49
2023/11/28 01:02:27;;;;;;;9.25;5.70;;;;;;;7.43;64.31;100190.63;5013763;28;20116;-46
2023/11/28 01:04:53;;;;;;;9.23;5.85;;;;;;;7.53;63.75;100195.09;5012667;28;20098;-49
2023/11/28 01:07:18;;;;;;;10.23;6.25;;;;;;;7.44;64.83;100202.75;5013779;28;20037;-48
2023/11/28 01:09:43;;;;;;;10.68;6.82;;;;;;;7.35;65.13;100200.88;5013480;28;20037;-46
2023/11/28 01:12:09;;;;;;;11.80;7.53;;;;;;;7.54;65.32;100209.81;5013987;28;20403;-52
2023/11/28 01:14:34;;;;;;;14.00;8.25;;;;;;;7.32;65.32;100216.38;5014655;28;20049;-53
2023/11/28 01:17:00;;;;;;;17.83;10.30;;;;;;;7.38;66.37;100226.84;5013138;28;20030;-47
2023/11/28 01:19:26;;;;;;;16.45;9.95;;;;;;;7.09;66.83;100234.16;5013965;28;20041;-50
2023/11/28 01:21:51;;;;;;;15.05;9.30;;;;;;;7.45;66.28;100228.69;5012868;28;20121;-48
2023/11/28 01:24:16;;;;;;;14.93;9.00;;;;;;;7.18;66.52;100236.91;5012407;28;20034;-48
2023/11/28 01:26:42;;;;;;;15.63;9.55;;;;;;;7.28;65.58;100248.28;5012618;28;20124;-46
2023/11/28 01:29:07;;;;;;;13.18;8.13;;;;;;;7.06;67.00;100248.78;5012495;28;20514;-48
2023/11/28 01:31:32;;;;;;;13.32;8.13;;;;;;;7.09;66.73;100254.00;5013041;28;20421;-45
2023/11/28 01:33:57;;;;;;;12.63;7.57;;;;;;;6.95;66.96;100255.50;5012064;28;20041;-49
2023/11/28 01:36:23;;;;;;;12.93;7.80;;;;;;;7.07;66.62;100261.78;5012479;28;20034;-48
2023/11/28 01:38:48;;;;;;;12.90;7.50;;;;;;;7.12;66.32;100264.44;5012278;28;20030;-47
2023/11/28 01:41:13;;;;;;;11.80;7.28;;;;;;;6.77;67.30;100274.19;5011764;28;20041;-50
2023/11/28 01:43:39;;;;;;;12.25;6.88;;;;;;;6.98;66.68;100273.69;5012037;28;20076;-51
2023/11/28 01:46:07;;;;;;;11.45;6.82;;;;;;;7.04;66.42;100278.97;5010334;28;20034;-48
2023/11/28 01:48:34;;;;;;;11.15;6.57;;;;;;;6.70;67.19;100291.31;5012229;28;20059;-50
2023/11/28 01:50:59;;;;;;;11.07;6.65;;;;;;;7.07;65.95;100295.47;5011905;28;20033;-50
2023/11/28 01:53:26;;;;;;;11.45;6.97;;;;;;;6.73;66.98;100299.13;5011971;28;20651;-47
2023/11/28 01:55:52;;;;;;;10.90;6.63;;;;;;;7.09;66.35;100305.84;5012135;28;20042;-48
2023/11/28 01:58:18;;;;;;;12.40;6.85;;;;;;;6.96;66.38;100309.06;5011375;28;20045;-47
2023/11/28 02:00:44;;;;;;;10.95;6.47;;;;;;;6.66;66.94;100312.81;5011948;28;20134;-48
2023/11/28 02:03:12;;;;;;;9.98;6.20;;;;;;;7.01;66.67;100323.88;5011738;28;20041;-46
2023/11/28 02:05:38;;;;;;;10.52;5.85;;;;;;;6.96;66.25;100333.25;5011085;28;20037;-49
2023/11/28 02:08:06;;;;;;;10.73;5.75;;;;;;;6.60;67.22;100325.63;5011271;28;20042;-48
2023/11/28 02:10:33;;;;;;;10.20;6.13;;;;;;;6.82;66.33;100338.19;5011876;28;20058;-48
2023/11/28 02:12:59;;;;;;;11.32;6.68;;;;;;;6.53;66.61;100341.03;5011341;28;20552;-49
2023/11/28 02:15:42;;;;;;;10.13;6.00;;;;;;;6.41;66.21;100334.72;5011658;28;20061;-49
2023/11/28 02:18:09;;;;;;;10.65;5.57;;;;;;;6.63;65.82;100356.78;5011171;28;20053;-45
2023/11/28 02:20:35;;;;;;;10.68;5.88;;;;;;;6.74;65.11;100344.94;5011535;28;20510;-54
2023/11/28 02:23:01;;;;;;;9.25;5.65;;;;;;;6.60;65.48;100369.66;5011445;28;20034;-46
2023/11/28 02:25:27;;;;;;;9.13;5.40;;;;;;;6.74;65.13;100370.84;5011569;28;20034;-46
2023/11/28 02:27:53;;;;;;;11.75;5.93;;;;;;;6.76;64.47;100378.66;5011073;28;20400;-48
2023/11/28 02:30:18;;;;;;;11.52;5.80;;;;;;;6.48;64.89;100385.81;5011483;28;20040;-51
2023/11/28 02:32:44;;;;;;;12.35;5.85;;;;;;;6.32;65.22;100398.41;5011521;28;20030;-53
2023/11/28 02:35:10;;;;;;;9.70;5.60;;;;;;;6.63;64.28;100392.19;5010754;28;20435;-50
2023/11/28 02:37:35;;;;;;;9.73;5.40;;;;;;;6.76;63.15;100392.47;5011261;28;20022;-47
2023/11/28 02:40:00;;;;;;;10.35;5.28;;;;;;;6.95;62.57;100398.91;5010772;28;20037;-47
2023/11/28 02:42:26;;;;;;;8.63;5.05;;;;;;;6.74;63.14;100412.28;5011632;28;20058;-51
2023/11/28 02:44:51;;;;;;;8.50;4.97;;;;;;;6.18;63.54;100403.25;5011089;28;20037;-48
2023/11/28 02:47:16;;;;;;;8.82;4.85;;;;;;;6.61;63.09;100409.38;5010608;28;20053;-50
2023/11/28 02:49:42;;;;;;;8.77;4.82;;;;;;;6.40;62.51;100415.81;5010921;28;20389;-46
2023/11/28 02:52:07;;;;;;;9.73;5.05;;;;;;;6.54;62.97;100421.31;5010251;28;20033;-50
2023/11/28 02:54:32;;;;;;;8.25;4.80;;;;;;;6.64;62.34;100419.84;5011000;28;20038;-49
2023/11/28 02:56:57;;;;;;;9.30;4.30;;;;;;;6.42;62.90;100427.09;5010475;28;20033;-47
2023/11/28 02:59:23;;;;;;;7.63;3.75;;;;;;;6.54;61.78;100434.28;5010891;28;20400;-47
2023/11/28 03:01:53;;;;;;;7.25;3.45;;;;;;;6.45;61.77;100441.84;5009763;28;20487;-48
2023/11/28 03:04:19;;;;;;;6.40;3.33;;;;;;;6.26;62.19;100447.44;5011079;28;20566;-47
2023/11/28 03:06:44;;;;;;;6.15;3.30;;;;;;;6.46;61.35;100451.38;5011448;28;20034;-48
2023/11/28 03:09:10;;;;;;;5.72;2.67;;;;;;;6.20;61.42;100450.75;5011180;28;20543;-49
2023/11/28 03:11:35;;;;;;;4.70;2.85;;;;;;;6.08;62.08;100453.03;5012603;28;20041;-49
2023/11/28 03:14:00;;;;;;;4.78;2.60;;;;;;;5.97;61.94;100462.25;5016350;28;20038;-46
2023/11/28 03:16:26;;;;;;;6.50;2.78;;;;;;;5.87;61.68;100466.31;5013445;28;20041;-50
2023/11/28 03:18:52;;;;;;;5.15;2.60;;;;;;;5.68;62.14;100464.91;5013797;28;20531;-45
2023/11/28 03:21:17;;;;;;;4.65;2.35;;;;;;;5.88;61.50;100473.25;5016956;28;20037;-49
2023/11/28 03:23:42;;;;;;;4.88;2.47;;;;;;;5.78;61.55;100476.41;5013838;28;20052;-48
2023/11/28 03:26:07;;;;;;;4.97;2.55;;;;;;;5.63;61.68;100473.38;5008915;28;20030;-48
2023/11/28 03:28:33;;;;;;;3.78;2.13;;;;;;;5.93;60.63;100479.41;5010570;28;20042;-46
2023/11/28 03:30:58;;;;;;;4.32;2.50;;;;;;;5.58;61.53;100481.03;5008251;28;20029;-47
2023/11/28 03:33:23;;;;;;;5.78;2.35;;;;;;;5.28;61.67;100482.78;5010813;28;20046;-48
2023/11/28 03:35:49;;;;;;;7.45;2.10;;;;;;;5.78;60.84;100488.44;5010928;28;20041;-49
2023/11/28 03:38:15;;;;;;;4.07;2.13;;;;;;;5.58;61.28;100482.75;5009988;28;20060;-46
2023/11/28 03:40:40;;;;;;;4.28;2.30;;;;;;;5.26;61.72;100490.47;5010587;28;20415;-47
2023/11/28 03:43:05;;;;;;;3.90;2.03;;;;;;;5.41;61.08;100487.47;5010034;28;20469;-45
2023/11/28 03:45:31;;;;;;;5.28;2.15;;;;;;;5.25;61.34;100495.59;5010282;28;20041;-50
2023/11/28 03:47:56;;;;;;;4.47;2.20;;;;;;;5.54;60.49;100504.19;5009734;28;20112;-46
2023/11/28 03:50:21;;;;;;;5.13;2.10;;;;;;;5.28;60.83;100509.50;5010792;28;20399;-48
2023/11/28 03:52:46;;;;;;;3.53;1.95;;;;;;;5.44;60.76;100510.78;5010777;28;20044;-47
2023/11/28 03:55:12;;;;;;;4.03;1.90;;;;;;;4.83;61.46;100509.00;5009980;28;20026;-47
2023/11/28 03:57:37;;;;;;;3.60;1.88;;;;;;;5.23;60.55;100515.38;5010240;28;20072;-47
2023/11/28 04:00:03;;;;;;;4.47;1.92;;;;;;;5.05;60.45;100520.88;5010063;28;20080;-46
2023/11/28 04:02:28;;;;;;;5.28;1.70;;;;;;;5.21;60.55;100507.56;5010849;28;20030;-48
2023/11/28 04:04:53;;;;;;;4.88;2.00;;;;;;;5.59;59.34;100512.94;5010534;28;20088;-49
2023/11/28 04:07:19;;;;;;;4.90;2.17;;;;;;;5.24;60.39;100518.00;5010523;28;20041;-48
2023/11/28 04:09:45;;;;;;;3.30;1.80;;;;;;;5.35;59.62;100522.59;5010999;28;20034;-45
2023/11/28 04:12:10;;;;;;;3.53;1.83;;;;;;;4.94;60.67;100532.56;5008767;28;20041;-48
2023/11/28 04:14:35;;;;;;;5.10;2.10;;;;;;;5.26;60.28;100534.41;5009634;28;20026;-45
2023/11/28 04:17:00;;;;;;;5.40;2.20;;;;;;;5.28;59.64;100535.34;5010341;28;20061;-47
2023/11/28 04:19:26;;;;;;;2.97;1.70;;;;;;;5.19;60.75;100547.09;5008834;28;20038;-50
2023/11/28 04:21:51;;;;;;;4.78;2.10;;;;;;;4.95;60.86;100543.78;5010707;28;20099;-49
2023/11/28 04:24:17;;;;;;;5.35;2.03;;;;;;;5.17;60.77;100551.38;5010737;28;20510;-45
2023/11/28 04:26:42;;;;;;;4.10;1.85;;;;;;;5.36;60.05;100543.34;5009928;28;20099;-47
2023/11/28 04:29:08;;;;;;;3.70;2.17;;;;;;;5.09;60.72;100550.25;5009252;28;20557;-46
2023/11/28 04:31:33;;;;;;;3.75;2.00;;;;;;;5.07;60.88;100555.38;5012464;28;20045;-48
2023/11/28 04:33:59;;;;;;;3.80;2.08;;;;;;;4.64;62.50;100554.84;5013479;28;20037;-45
2023/11/28 04:36:25;;;;;;;4.53;2.08;;;;;;;5.12;61.89;100552.94;5014331;28;20106;-46
2023/11/28 04:38:50;;;;;;;4.00;1.90;;;;;;;4.96;62.39;100553.28;5013673;28;20038;-47
2023/11/28 04:41:16;;;;;;;9.05;1.90;;;;;;;4.88;63.20;100563.38;5014569;28;20665;-46
2023/11/28 04:43:41;;;;;;;3.67;1.90;;;;;;;5.18;61.97;100568.63;5014039;28;20454;-46
2023/11/28 04:46:07;;;;;;;4.65;1.88;;;;;;;5.35;61.17;100576.88;5013256;28;20448;-47
2023/11/28 04:48:32;;;;;;;3.83;1.83;;;;;;;5.19;61.81;100581.56;5013598;28;20037;-46
2023/11/28 04:50:58;;;;;;;3.45;1.90;;;;;;;5.03;62.19;100579.38;5012583;28;20033;-47
2023/11/28 04:53:23;;;;;;;3.88;1.90;;;;;;;5.01;62.24;100582.72;5013746;28;20068;-51
2023/11/28 04:55:49;;;;;;;3.45;2.00;;;;;;;5.01;61.94;100593.06;5013415;28;20029;-46
2023/11/28 04:58:14;;;;;;;3.95;1.90;;;;;;;5.12;61.52;100592.56;5012486;28;20511;-46
2023/11/28 05:00:39;;;;;;;3.88;1.92;;;;;;;5.19;61.42;100598.78;5013176;28;20062;-46
2023/11/28 05:03:05;;;;;;;3.80;2.00;;;;;;;5.47;60.80;100603.97;5014299;28;20037;-46
2023/11/28 05:05:30;;;;;;;3.10;1.73;;;;;;;5.36;60.38;100607.94;5014201;28;20080;-46
2023/11/28 05:07:55;;;;;;;3.95;1.90;;;;;;;5.59;60.12;100614.66;5012870;28;20044;-47
2023/11/28 05:10:21;;;;;;;5.03;1.90;;;;;;;5.52;60.59;100606.69;5012494;28;20065;-47
2023/11/28 05:12:46;;;;;;;3.38;1.83;;;;;;;5.32;60.31;100613.84;4995212;28;20120;-50
2023/11/28 05:15:12;;;;;;;3.08;1.60;;;;;;;5.68;60.02;100625.25;5012672;28;20054;-45
2023/11/28 05:17:37;;;;;;;3.40;1.70;;;;;;;5.51;60.38;100628.19;5013359;28;20065;-48
2023/11/28 05:20:04;;;;;;;3.45;1.70;;;;;;;5.57;60.45;100634.44;5012464;28;20100;-51
2023/11/28 05:22:29;;;;;;;4.07;2.03;;;;;;;5.49;60.04;100638.47;5011860;28;20042;-46
2023/11/28 05:24:55;;;;;;;4.90;1.80;;;;;;;5.57;60.05;100642.19;5012705;28;20041;-48
2023/11/28 05:27:21;;;;;;;3.35;1.70;;;;;;;5.41;60.96;100645.16;5012929;28;20030;-52
2023/11/28 05:29:46;;;;;;;5.38;2.10;;;;;;;5.48;60.51;100657.44;5013225;28;20041;-46
2023/11/28 05:32:12;;;;;;;4.00;1.90;;;;;;;5.34;60.61;100661.31;5028356;28;20048;-48
2023/11/28 05:34:37;;;;;;;3.08;1.88;;;;;;;5.38;60.64;100663.13;5013190;28;20675;-51
2023/11/28 05:37:02;;;;;;;5.57;2.50;;;;;;;5.42;60.13;100662.44;5012479;28;20523;-49
2023/11/28 05:39:29;;;;;;;4.47;2.28;;;;;;;5.24;60.95;100670.50;5014039;28;20030;-47
2023/11/28 05:41:54;;;;;;;4.28;1.90;;;;;;;5.30;60.46;100670.69;5013240;28;20042;-46
2023/11/28 05:44:20;;;;;;;4.07;1.63;;;;;;;5.21;60.20;100672.97;5012838;28;20519;-54
2023/11/28 05:46:46;;;;;;;2.60;1.60;;;;;;;5.23;60.26;100671.31;5012218;28;20026;-51
2023/11/28 05:49:11;;;;;;;4.88;1.88;;;;;;;5.09;60.27;100666.53;5010509;28;20053;-46
2023/11/28 05:51:37;;;;;;;4.28;1.90;;;;;;;5.03;60.79;100669.78;5012396;28;20037;-45
2023/11/28 05:54:03;;;;;;;3.65;1.80;;;;;;;4.95;61.54;100667.78;5010469;28;20518;-48
2023/11/28 05:56:28;;;;;;;3.53;1.75;;;;;;;5.02;62.01;100660.28;5012161;28;20057;-49
2023/11/28 05:58:54;;;;;;;3.75;2.17;;;;;;;4.90;61.63;100655.59;5011513;28;20088;-47
2023/11/28 06:01:19;;;;;;;4.32;1.90;;;;;;;5.00;62.16;100668.84;5011919;28;20088;-46
2023/11/28 06:03:45;;;;;;;4.97;2.00;;;;;;;5.03;62.32;100674.09;5011985;28;20120;-47
2023/11/28 06:06:10;;;;;;;3.20;1.80;;;;;;;4.98;62.29;100675.66;5011689;28;20084;-47
2023/11/28 06:08:36;;;;;;;3.45;1.90;;;;;;;5.09;61.66;100677.75;5011712;28;20099;-47
2023/11/28 06:11:01;;;;;;;4.10;1.85;;;;;;;5.14;61.35;100688.22;5011615;28;20042;-47
2023/11/28 06:13:27;;;;;;;5.72;1.77;;;;;;;5.01;62.06;100683.47;5011952;28;20026;-51
2023/11/28 06:15:53;;;;;;;5.18;2.20;;;;;;;5.04;61.96;100689.63;5011532;28;20408;-45
2023/11/28 06:18:18;;;;;;;3.88;1.90;;;;;;;5.03;62.31;100693.03;5010626;28;20376;-47
2023/11/28 06:20:44;;;;;;;4.65;2.00;;;;;;;5.04;61.90;100689.63;5011381;28;20080;-46
2023/11/28 06:23:09;;;;;;;4.70;2.00;;;;;;;5.05;61.80;100693.97;5011088;28;20037;-50
2023/11/28 06:25:35;;;;;;;4.63;2.40;;;;;;;4.88;62.35;100702.84;5011684;28;20415;-48
2023/11/28 06:28:00;;;;;;;5.30;2.28;;;;;;;4.87;62.27;100698.53;5010057;28;20061;-46
2023/11/28 06:30:25;;;;;;;3.70;2.10;;;;;;;4.79;62.67;100708.63;5011399;28;20443;-51
2023/11/28 06:32:51;;;;;;;6.60;2.03;;;;;;;4.83;63.22;100715.63;5011798;28;20061;-47
2023/11/28 06:35:17;;;;;;;5.18;2.20;;;;;;;4.86;62.73;100718.34;5011416;28;20058;-47
2023/11/28 06:37:42;;;;;;;3.70;2.05;;;;;;;4.85;62.41;100726.91;5011722;28;20056;-48
2023/11/28 06:40:08;;;;;;;3.28;1.92;;;;;;;4.81;62.72;100735.38;5011134;28;20084;-47
2023/11/28 06:42:33;;;;;;;4.45;2.10;;;;;;;4.83;62.16;100740.56;5011673;28;20088;-51
2023/11/28 06:44:59;;;;;;;4.38;1.92;;;;;;;4.76;62.25;100741.19;5010830;28;20038;-49
2023/11/28 06:47:24;;;;;;;3.70;2.05;;;;;;;4.74;62.55;100750.59;5010876;28;20074;-51
2023/11/28 06:49:50;;;;;;;5.85;2.20;;;;;;;4.74;62.62;100753.19;5010991;28;20112;-46
2023/11/28 06:52:15;;;;;;;7.03;2.20;;;;;;;4.73;62.19;100759.19;5010293;28;20061;-48
2023/11/28 06:54:42;;;;;;;3.67;2.10;;;;;;;4.72;62.49;100758.28;5011380;28;20112;-49
2023/11/28 06:57:08;;;;;;;6.10;2.47;;;;;;;4.69;62.47;100765.94;5010749;28;20041;-47
2023/11/28 06:59:33;;;;;;;3.65;2.13;;;;;;;4.68;63.03;100771.06;5011118;28;20038;-45
2023/11/28 07:01:59;;;;;;;4.65;2.50;;;;;;;4.59;63.16;100773.28;5010717;28;20045;-49
2023/11/28 07:04:24;;;;;;;7.20;2.55;;;;;;;4.56;63.22;100781.81;5012488;28;20591;-46
2023/11/28 07:06:49;;;;;;;6.60;2.60;;;;;;;4.60;63.38;100785.38;5010701;28;20443;-47
2023/11/28 07:09:16;;;;;;;5.35;2.47;;;;;;;4.70;63.83;100787.47;5011284;28;20049;-51
2023/11/28 07:11:41;;;;;;;7.32;2.78;;;;;;;4.73;63.45;100791.03;5011286;28;20038;-47
2023/11/28 07:14:07;;;;;;;6.72;2.90;;;;;;;4.68;63.46;100797.75;5011805;28;20065;-45
2023/11/28 07:16:34;;;;;;;5.55;2.97;;;;;;;4.62;63.74;100801.81;5017868;28;20033;-47
2023/11/28 07:18:59;;;;;;;6.75;2.83;;;;;;;4.62;63.56;100797.53;5022302;28;20052;-50
2023/11/28 07:21:24;;;;;;;4.70;2.50;;;;;;;4.63;63.53;100801.00;5017554;28;20038;-47
2023/11/28 07:23:50;;;;;;;6.15;2.72;;;;;;;4.53;64.14;100794.59;5013477;28;20045;-48
2023/11/28 07:26:16;;;;;;;8.45;2.88;;;;;;;4.67;63.43;100796.00;5010897;28;20034;-48
2023/11/28 07:28:41;;;;;;;8.20;3.20;;;;;;;4.68;63.64;100802.03;5010784;28;20048;-47
2023/11/28 07:31:06;;;;;;;8.70;3.45;;;;;;;4.68;63.15;100802.03;5010357;28;20404;-51
2023/11/28 07:33:32;;;;;;;5.90;2.78;;;;;;;4.66;63.24;100801.97;5011163;28;20072;-52
2023/11/28 07:35:57;;;;;;;6.72;2.65;;;;;;;4.63;63.25;100809.63;5010942;28;20531;-49
2023/11/28 07:38:24;;;;;;;6.32;2.70;;;;;;;4.62;63.54;100805.28;5011091;28;20107;-47
2023/11/28 07:40:50;;;;;;;6.55;2.90;;;;;;;4.62;63.60;100809.56;5011479;28;20034;-47
2023/11/28 07:43:15;;;;;;;8.30;3.20;;;;;;;4.62;63.86;100814.72;5010201;28;20033;-48
2023/11/28 07:45:41;;;;;;;6.95;3.28;;;;;;;4.64;64.19;100821.69;5008845;28;20102;-50
2023/11/28 07:48:06;;;;;;;7.35;2.97;;;;;;;4.63;64.16;100822.53;5009738;28;20065;-48
2023/11/28 07:50:32;;;;;;;7.75;3.20;;;;;;;4.64;63.78;100818.22;5010042;28;20109;-47
2023/11/28 07:52:58;;;;;;;7.55;3.15;;;;;;;4.67;64.37;100824.41;5009734;28;20135;-49
2023/11/28 07:55:23;;;;;;;10.50;3.15;;;;;;;4.71;64.43;100818.50;5009942;28;20030;-48
2023/11/28 07:57:49;;;;;;;6.97;3.35;;;;;;;4.76;64.06;100818.66;5010235;28;20065;-46
2023/11/28 08:00:15;;;;;;;6.20;3.03;;;;;;;4.78;64.45;100817.03;5009405;28;20030;-47
2023/11/28 08:02:41;;;;;;;6.63;3.45;;;;;;;4.81;65.07;100823.19;5009862;28;20057;-47
2023/11/28 08:05:07;;;;;;;6.68;3.35;;;;;;;4.85;65.20;100830.22;5012285;28;20046;-45
2023/11/28 08:07:33;;;;;;;6.43;3.35;;;;;;;4.86;65.37;100837.16;5014147;28;20026;-46
2023/11/28 08:10:05;;;;;;;6.72;3.00;;;;;;;5.01;64.98;100843.66;5013229;28;20034;-48
2023/11/28 08:12:30;;;;;;;9.80;3.22;;;;;;;5.12;65.00;100847.53;5013774;28;20038;-46
2023/11/28 08:14:56;;;;;;;5.60;3.17;;;;;;;5.17;65.29;100852.03;5013172;28;20084;-50
2023/11/28 08:17:23;;;;;;;6.13;3.22;;;;;;;5.28;65.52;100857.53;5013931;28;20026;-48
2023/11/28 08:19:50;;;;;;;7.45;3.38;;;;;;;5.39;65.95;100844.97;5013719;28;20026;-47
2023/11/28 08:22:17;;;;;;;8.43;3.45;;;;;;;5.53;65.54;100849.78;5013713;28;20037;-47
2023/11/28 08:24:42;;;;;;;6.57;3.78;;;;;;;5.57;65.47;100846.47;5014103;28;20462;-48
2023/11/28 08:27:08;;;;;;;6.22;3.50;;;;;;;5.67;65.33;100851.09;5013322;28;20034;-45
2023/11/28 08:29:33;;;;;;;12.48;4.43;;;;;;;5.70;65.09;100851.22;5013369;28;20038;-46
2023/11/28 08:31:58;;;;;;;8.48;3.97;;;;;;;5.87;64.91;100856.97;5013203;28;20030;-51
2023/11/28 08:34:24;;;;;;;9.20;4.60;;;;;;;5.87;64.78;100864.72;5013558;28;20117;-45
2023/11/28 08:36:51;;;;;;;8.52;4.20;;;;;;;6.01;65.14;100865.16;5013252;28;20510;-50
2023/11/28 08:39:16;;;;;;;9.48;4.50;;;;;;;6.27;64.20;100874.63;5012759;28;20395;-45
2023/11/28 08:41:42;;;;;;;8.55;4.47;;;;;;;6.44;63.67;100882.91;5013265;28;20080;-45
2023/11/28 08:44:08;;;;;;;10.05;4.70;;;;;;;6.40;64.08;100889.69;5012625;28;20902;-50
2023/11/28 08:46:35;;;;;;;9.80;4.50;;;;;;;6.46;64.07;100891.59;5013581;28;20033;-51
2023/11/28 08:49:00;;;;;;;8.90;4.60;;;;;;;6.53;63.13;100896.09;5012826;28;20038;-47
2023/11/28 08:51:25;;;;;;;8.93;4.45;;;;;;;6.36;62.51;100895.59;5013115;28;20095;-49
2023/11/28 08:53:51;;;;;;;13.20;4.60;;;;;;;6.02;63.89;100900.56;5013900;28;20034;-46
2023/11/28 08:56:16;;;;;;;9.68;4.20;;;;;;;5.79;64.16;100898.91;5013326;28;20034;-52
2023/11/28 08:58:41;;;;;;;13.02;4.00;;;;;;;5.78;63.94;100898.03;5013389;28;20030;-50
2023/11/28 09:01:07;;;;;;;7.00;4.00;;;;;;;5.96;63.29;100905.56;5011173;28;20130;-47
2023/11/28 09:03:32;;;;;;;7.95;4.10;;;;;;;5.96;63.82;100909.03;5012974;28;20080;-50
2023/11/28 09:05:57;;;;;;;8.90;4.20;;;;;;;6.03;63.02;100910.97;5012577;28;20125;-46
2023/11/28 09:08:23;;;;;;;9.80;4.22;;;;;;;5.98;63.49;100906.47;5013008;28;20091;-45
2023/11/28 09:10:48;;;;;;;10.63;4.72;;;;;;;5.88;63.78;100913.06;5012578;28;20030;-49
2023/11/28 09:13:14;;;;;;;8.32;4.15;;;;;;;6.09;63.58;100911.19;5012843;28;20042;-47
2023/11/28 09:15:39;;;;;;;8.75;3.92;;;;;;;6.20;63.16;100903.75;5012451;28;20037;-47
2023/11/28 09:18:04;;;;;;;7.57;4.10;;;;;;;6.12;63.04;100915.56;5012484;28;20026;-52
2023/11/28 09:20:29;;;;;;;9.98;3.78;;;;;;;6.35;62.43;100914.56;5012364;28;20543;-50
2023/11/28 09:22:55;;;;;;;10.65;4.07;;;;;;;6.32;62.61;100911.88;5010841;28;20099;-47
2023/11/28 09:25:20;;;;;;;7.53;4.30;;;;;;;6.08;63.29;100918.88;5012696;28;20053;-46
2023/11/28 09:27:45;;;;;;;10.35;4.28;;;;;;;6.25;63.02;100927.19;5013015;28;20492;-47
2023/11/28 09:30:11;;;;;;;10.43;4.05;;;;;;;6.09;64.01;100929.28;5012182;28;20080;-50
2023/11/28 09:32:36;;;;;;;8.65;4.30;;;;;;;6.30;63.07;100933.38;5012210;28;20054;-47
2023/11/28 09:35:02;;;;;;;10.30;4.30;;;;;;;6.27;62.87;100938.47;5010431;28;20042;-45
2023/11/28 09:37:27;;;;;;;7.53;4.60;;;;;;;6.22;63.08;100942.63;5012400;28;20105;-49
2023/11/28 09:39:53;;;;;;;10.02;4.35;;;;;;;6.42;63.11;100939.81;5011700;28;20404;-45
2023/11/28 09:42:21;;;;;;;8.98;4.22;;;;;;;6.38;62.96;100937.09;5012391;28;20037;-48
2023/11/28 09:44:48;;;;;;;7.07;4.03;;;;;;;6.33;63.22;100949.91;5010950;28;20046;-46
2023/11/28 09:47:15;;;;;;;6.70;3.92;;;;;;;6.58;62.64;100948.06;5027388;28;20029;-47
2023/11/28 09:49:42;;;;;;;8.77;4.63;;;;;;;6.37;62.82;100945.69;5012088;28;20034;-49
2023/11/28 09:52:08;;;;;;;7.15;4.13;;;;;;;6.63;62.98;100947.38;5011744;28;20041;-50
2023/11/28 09:54:37;;;;;;;10.68;4.07;;;;;;;6.70;63.14;100946.72;5012354;28;20121;-47
2023/11/28 09:57:04;;;;;;;10.90;4.10;;;;;;;6.86;61.35;100948.94;5011580;28;20125;-47
2023/11/28 09:59:30;;;;;;;7.70;3.92;;;;;;;7.22;60.37;100943.03;5012035;28;20395;-45
2023/11/28 10:01:57;;;;;;;6.38;3.42;;;;;;;7.08;59.42;100945.22;5011860;28;20059;-49
2023/11/28 10:04:23;;;;;;;7.28;3.67;;;;;;;6.80;59.85;100960.81;5026977;28;20105;-50
2023/11/28 10:06:50;;;;;;;10.13;4.20;;;;;;;6.63;60.70;100954.25;5011567;28;20061;-45
2023/11/28 10:09:16;;;;;;;8.23;4.18;;;;;;;6.44;61.77;100956.28;5011033;28;20034;-50
2023/11/28 10:11:43;;;;;;;9.10;3.70;;;;;;;6.77;61.07;100958.16;5011576;28;20030;-46
2023/11/28 10:14:08;;;;;;;9.95;3.65;;;;;;;6.86;60.15;100961.88;5011588;28;20057;-49
2023/11/28 10:16:46;;;;;;;6.07;3.45;;;;;;;7.12;59.53;100964.38;5011597;28;20060;-48
2023/11/28 10:19:11;;;;;;;8.05;3.65;;;;;;;7.21;59.19;100965.50;5011193;28;20068;-48
2023/11/28 10:21:41;;;;;;;6.22;3.50;;;;;;;7.29;59.69;100964.00;5011668;28;20030;-47
2023/11/28 10:24:08;;;;;;;9.38;3.72;;;;;;;7.27;59.02;100959.59;5010777;28;20030;-46
2023/11/28 10:26:34;;;;;;;8.25;3.58;;;;;;;7.28;58.17;100959.66;5010336;28;20069;-47
2023/11/28 10:29:02;;;;;;;8.10;3.53;;;;;;;7.16;58.53;100956.72;5010830;28;20065;-47
2023/11/28 10:31:27;;;;;;;9.63;3.83;;;;;;;6.84;60.82;100960.94;5011470;28;20088;-47
2023/11/28 10:33:52;;;;;;;6.03;3.42;;;;;;;7.22;59.88;100958.59;5011238;28;20038;-45
2023/11/28 10:36:18;;;;;;;6.40;3.78;;;;;;;7.28;59.38;100954.47;5011126;28;20030;-49
2023/11/28 10:38:43;;;;;;;8.00;3.75;;;;;;;7.44;59.13;100957.50;5011182;28;20037;-47
2023/11/28 10:41:09;;;;;;;5.80;3.33;;;;;;;7.19;59.84;100956.81;5010964;28;20579;-46
2023/11/28 10:43:34;;;;;;;6.18;3.63;;;;;;;7.39;59.47;100951.28;5011686;28;20410;-51
2023/11/28 10:46:04;;;;;;;8.73;3.80;;;;;;;7.12;59.86;100944.50;5011016;28;20080;-46
2023/11/28 10:48:30;;;;;;;10.38;3.58;;;;;;;7.32;59.63;100942.44;5011524;28;20038;-46
2023/11/28 10:50:56;;;;;;;9.40;3.88;;;;;;;7.45;59.03;100939.34;5011313;28;20064;-47
2023/11/28 10:53:24;;;;;;;8.93;3.90;;;;;;;7.52;58.95;100936.09;5009846;28;20119;-46
2023/11/28 10:55:51;;;;;;;8.15;3.80;;;;;;;7.55;58.67;100937.91;5011266;28;20033;-51
2023/11/28 10:58:17;;;;;;;9.32;3.80;;;;;;;7.33;58.65;100941.59;5012147;28;20034;-51
2023/11/28 11:00:45;;;;;;;9.55;4.13;;;;;;;7.11;60.21;100942.75;5012172;28;20033;-50
2023/11/28 11:03:13;;;;;;;8.73;4.00;;;;;;;7.06;60.30;100953.81;5010879;28;20037;-47
2023/11/28 11:05:39;;;;;;;7.60;3.85;;;;;;;7.07;59.78;100953.88;5011359;28;20084;-48
2023/11/28 11:08:04;;;;;;;7.13;3.80;;;;;;;7.53;57.89;100943.03;5010452;28;20045;-48
2023/11/28 11:10:30;;;;;;;8.32;3.53;;;;;;;7.53;57.60;100955.13;5010584;28;20037;-48
2023/11/28 11:13:37;;;;;;;12.43;4.18;;;;;;;7.42;57.66;100943.59;5010498;28;20057;-50
2023/11/28 11:16:18;;;;;;;9.05;3.53;;;;;;;7.50;57.82;100953.31;5012073;28;20037;-46
2023/11/28 11:18:47;;;;;;;6.88;3.20;;;;;;;7.37;57.03;100942.59;5015902;28;20069;-52
2023/11/28 11:21:21;;;;;;;6.00;3.10;;;;;;;7.69;57.09;100941.72;5011365;28;20128;-49
2023/11/28 11:23:49;;;;;;;5.90;2.80;;;;;;;7.94;56.38;100938.91;5012603;28;20048;-49
2023/11/28 11:26:14;;;;;;;6.70;2.90;;;;;;;7.79;56.22;100935.94;5012210;28;20396;-48